Time,TemperatureF,DewpointF,PressureIn,WindDirection,WindDirectionDegrees,WindSpeedMPH,WindSpeedGustMPH,Humidity,HourlyPrecipIn,Conditions,Clouds,dailyrainin,SolarRadiationWatts/m^2,SoftwareType,DateUTC
2013-03-22 00:02:00,34.0,8.0,29.89,NNW,336,12.0,16.0,34,-99.99,,,-99.99,0.000000,,2013-03-22 07:02:00,
2013-03-22 00:10:00,32.0,10.0,29.90,North,8,12.0,18.0,38,-99.99,,,-99.99,0.000000,,2013-03-22 07:10:00,
2013-03-22 00:52:00,32.0,10.0,29.90,North,8,12.0,18.0,38,-99.99,,,-99.99,0.000000,,2013-03-22 07:52:00,
2013-03-22 01:02:00,32.0,10.0,29.90,North,8,12.0,18.0,38,-99.99,,,-99.99,0.000000,,2013-03-22 08:02:00,
2013-03-22 01:10:00,30.0,9.0,29.90,NNW,335,6.0,9.0,41,-99.99,,,-99.99,0.000000,,2013-03-22 08:10:00,
2013-03-22 01:52:00,30.0,9.0,29.90,NNW,335,6.0,9.0,41,-99.99,,,-99.99,0.000000,,2013-03-22 08:52:00,
2013-03-22 02:02:00,30.0,9.0,29.90,NNW,335,6.0,9.0,41,-99.99,,,-99.99,0.000000,,2013-03-22 09:02:00,
2013-03-22 02:10:00,27.0,13.0,29.90,NNW,346,7.0,14.0,56,-99.99,,,-99.99,0.000000,,2013-03-22 09:10:00,
2013-03-22 02:53:00,27.0,13.0,29.90,NNW,346,7.0,14.0,56,-99.99,,,-99.99,0.000000,,2013-03-22 09:53:00,
2013-03-22 03:03:00,27.0,13.0,29.90,NNW,346,7.0,14.0,56,-99.99,,,-99.99,0.000000,,2013-03-22 10:03:00,
2013-03-22 03:10:00,27.0,12.0,29.88,NNE,12,9.0,12.0,52,-99.99,,,-99.99,0.000000,,2013-03-22 10:10:00,
2013-03-22 03:52:00,27.0,12.0,29.88,NNE,12,9.0,12.0,52,-99.99,,,-99.99,0.000000,,2013-03-22 10:52:00,
2013-03-22 04:02:00,27.0,12.0,29.88,NNE,12,9.0,12.0,52,-99.99,,,-99.99,0.000000,,2013-03-22 11:02:00,
2013-03-22 04:10:00,25.0,11.0,29.86,SSW,213,4.0,9.0,54,-99.99,,,-99.99,0.000000,,2013-03-22 11:10:00,
2013-03-22 04:52:00,25.0,11.0,29.86,SSW,213,4.0,9.0,54,-99.99,,,-99.99,0.000000,,2013-03-22 11:52:00,
2013-03-22 05:02:00,25.0,11.0,29.86,SSW,213,4.0,9.0,54,-99.99,,,-99.99,0.000000,,2013-03-22 12:02:00,
2013-03-22 05:10:00,26.0,9.0,29.86,SW,231,2.0,6.0,49,-99.99,,,-99.99,0.000000,,2013-03-22 12:10:00,
2013-03-22 05:52:00,26.0,9.0,29.86,SW,231,2.0,6.0,49,-99.99,,,-99.99,0.000000,,2013-03-22 12:52:00,
2013-03-22 06:02:00,26.0,9.0,29.86,SW,231,2.0,6.0,49,-99.99,,,-99.99,0.000000,,2013-03-22 13:02:00,
2013-03-22 06:10:00,29.0,6.0,29.85,ESE,121,4.0,9.0,37,-99.99,,,-99.99,0.000000,,2013-03-22 13:10:00,
2013-03-22 06:52:00,29.0,6.0,29.85,ESE,121,4.0,9.0,37,-99.99,,,-99.99,0.000000,,2013-03-22 13:52:00,
2013-03-22 07:02:00,29.0,6.0,29.85,ESE,121,4.0,9.0,37,-99.99,,,-99.99,0.000000,,2013-03-22 14:02:00,
2013-03-22 07:10:00,22.0,9.0,29.85,SE,132,6.0,9.0,58,-99.99,,,-99.99,50.000000,,2013-03-22 14:10:00,
2013-03-22 07:52:00,22.0,9.0,29.85,SE,132,6.0,9.0,58,-99.99,,,-99.99,50.000000,,2013-03-22 14:52:00,
2013-03-22 08:02:00,22.0,9.0,29.85,SE,132,6.0,9.0,58,-99.99,,,-99.99,50.000000,,2013-03-22 15:02:00,
2013-03-22 08:10:00,27.0,12.0,29.84,ESE,115,3.0,6.0,53,-99.99,,,-99.99,250.000000,,2013-03-22 15:10:00,
2013-03-22 08:52:00,27.0,12.0,29.84,ESE,115,3.0,6.0,53,-99.99,,,-99.99,250.000000,,2013-03-22 15:52:00,
2013-03-22 09:02:00,27.0,12.0,29.84,ESE,115,3.0,6.0,53,-99.99,,,-99.99,250.000000,,2013-03-22 16:02:00,
2013-03-22 09:10:00,36.0,9.0,29.83,ESE,108,3.0,10.0,31,-99.99,,,-99.99,480.000000,,2013-03-22 16:10:00,
2013-03-22 09:52:00,36.0,9.0,29.83,ESE,108,3.0,10.0,31,-99.99,,,-99.99,480.000000,,2013-03-22 16:52:00,
2013-03-22 10:03:00,36.0,9.0,29.83,ESE,108,3.0,10.0,31,-99.99,,,-99.99,480.000000,,2013-03-22 17:03:00,
2013-03-22 10:10:00,38.0,7.0,29.85,NW,307,14.0,22.0,26,-99.99,,,-99.99,670.000000,,2013-03-22 17:10:00,
2013-03-22 10:52:00,38.0,7.0,29.85,NW,307,14.0,22.0,26,-99.99,,,-99.99,670.000000,,2013-03-22 17:52:00,
2013-03-22 11:02:00,38.0,7.0,29.85,NW,307,14.0,22.0,26,-99.99,,,-99.99,670.000000,,2013-03-22 18:02:00,
2013-03-22 11:10:00,38.0,8.0,29.86,NW,311,11.0,24.0,28,-99.99,,,-99.99,820.000000,,2013-03-22 18:10:00,
2013-03-22 11:52:00,38.0,8.0,29.86,NW,311,11.0,24.0,28,-99.99,,,-99.99,820.000000,,2013-03-22 18:52:00,
2013-03-22 12:02:00,38.0,8.0,29.86,NW,311,11.0,24.0,28,-99.99,,,-99.99,820.000000,,2013-03-22 19:02:00,
2013-03-22 12:10:00,39.0,9.0,29.86,WNW,299,12.0,21.0,29,-99.99,,,-99.99,910.000000,,2013-03-22 19:10:00,
2013-03-22 12:52:00,39.0,9.0,29.86,WNW,299,12.0,21.0,29,-99.99,,,-99.99,910.000000,,2013-03-22 19:52:00,
2013-03-22 13:02:00,39.0,9.0,29.86,WNW,299,12.0,21.0,29,-99.99,,,-99.99,910.000000,,2013-03-22 20:02:00,
2013-03-22 13:10:00,40.0,9.0,29.85,West,275,7.0,14.0,27,-99.99,,,-99.99,940.000000,,2013-03-22 20:10:00,
2013-03-22 13:52:00,40.0,9.0,29.85,West,275,7.0,14.0,27,-99.99,,,-99.99,940.000000,,2013-03-22 20:52:00,
2013-03-22 14:02:00,40.0,9.0,29.85,West,275,7.0,14.0,27,-99.99,,,-99.99,940.000000,,2013-03-22 21:02:00,
2013-03-22 14:10:00,40.0,13.0,29.83,West,277,15.0,25.0,33,-99.99,,,-99.99,870.000000,,2013-03-22 21:10:00,
2013-03-22 14:52:00,40.0,13.0,29.83,West,277,15.0,25.0,33,-99.99,,,-99.99,870.000000,,2013-03-22 21:52:00,
2013-03-22 15:02:00,40.0,13.0,29.83,West,277,15.0,25.0,33,-99.99,,,-99.99,870.000000,,2013-03-22 22:02:00,
2013-03-22 15:10:00,39.0,13.0,29.82,West,279,18.0,32.0,33,-99.99,,,-99.99,750.000000,,2013-03-22 22:10:00,
2013-03-22 15:52:00,39.0,13.0,29.82,West,279,18.0,32.0,33,-99.99,,,-99.99,750.000000,,2013-03-22 22:52:00,
2013-03-22 16:02:00,39.0,13.0,29.82,West,279,18.0,32.0,33,-99.99,,,-99.99,750.000000,,2013-03-22 23:02:00,
2013-03-22 16:10:00,39.0,11.0,29.84,WNW,288,14.0,22.0,31,-99.99,,,-99.99,570.000000,,2013-03-22 23:10:00,
2013-03-22 16:52:00,39.0,11.0,29.84,WNW,288,14.0,22.0,31,-99.99,,,-99.99,570.000000,,2013-03-22 23:52:00,
2013-03-22 17:02:00,39.0,11.0,29.84,WNW,288,14.0,22.0,31,-99.99,,,-99.99,570.000000,,2013-03-23 00:02:00,
2013-03-22 17:10:00,36.0,10.0,29.86,NW,309,13.0,23.0,34,-99.99,,,-99.99,320.000000,,2013-03-23 00:10:00,
2013-03-22 17:52:00,36.0,10.0,29.86,NW,309,13.0,23.0,34,-99.99,,,-99.99,320.000000,,2013-03-23 00:52:00,
2013-03-22 18:03:00,36.0,10.0,29.86,NW,309,13.0,23.0,34,-99.99,,,-99.99,320.000000,,2013-03-23 01:03:00,
2013-03-22 18:10:00,33.0,9.0,29.88,WNW,301,10.0,21.0,36,-99.99,,,-99.99,40.000000,,2013-03-23 01:10:00,
2013-03-22 18:52:00,33.0,9.0,29.88,WNW,301,10.0,21.0,36,-99.99,,,-99.99,40.000000,,2013-03-23 01:52:00,
2013-03-22 19:02:00,33.0,9.0,29.88,WNW,301,10.0,21.0,36,-99.99,,,-99.99,40.000000,,2013-03-23 02:02:00,
2013-03-22 19:10:00,30.0,8.0,29.90,North,4,14.0,21.0,39,-99.99,,,-99.99,0.000000,,2013-03-23 02:10:00,
2013-03-22 19:52:00,30.0,8.0,29.90,North,4,14.0,21.0,39,-99.99,,,-99.99,0.000000,,2013-03-23 02:52:00,
2013-03-22 20:02:00,30.0,8.0,29.90,North,4,14.0,21.0,39,-99.99,,,-99.99,0.000000,,2013-03-23 03:02:00,
2013-03-22 20:10:00,28.0,6.0,29.94,North,2,12.0,17.0,39,-99.99,,,-99.99,0.000000,,2013-03-23 03:10:00,
2013-03-22 20:53:00,28.0,6.0,29.94,North,2,12.0,17.0,39,-99.99,,,-99.99,0.000000,,2013-03-23 03:53:00,
2013-03-22 21:02:00,28.0,6.0,29.94,North,2,12.0,17.0,39,-99.99,,,-99.99,0.000000,,2013-03-23 04:02:00,
2013-03-22 21:10:00,27.0,5.0,29.96,NNE,17,13.0,19.0,38,-99.99,,,-99.99,0.000000,,2013-03-23 04:10:00,
2013-03-22 21:52:00,27.0,5.0,29.96,NNE,17,13.0,19.0,38,-99.99,,,-99.99,0.000000,,2013-03-23 04:52:00,
2013-03-22 22:02:00,27.0,5.0,29.96,NNE,17,13.0,19.0,38,-99.99,,,-99.99,0.000000,,2013-03-23 05:02:00,
2013-03-22 23:10:00,23.0,13.0,30.01,NNE,21,13.0,18.0,66,-99.99,,,-99.99,0.000000,,2013-03-23 06:10:00,
2013-03-22 23:52:00,23.0,13.0,30.01,NNE,21,13.0,18.0,66,-99.99,,,-99.99,0.000000,,2013-03-23 06:52:00,